sensor_id;sensor_type;location;lat;lon;timestamp;temperature;humidity
19522;DHT22;9905;52.126;5.596;2022-12-07T00:01:17;4.00;99.90
19522;DHT22;9905;52.126;5.596;2022-12-07T00:03:47;4.00;99.90
19522;DHT22;9905;52.126;5.596;2022-12-07T00:06:15;4.00;99.90
19522;DHT22;9905;52.126;5.596;2022-12-07T00:08:43;4.00;99.90
19522;DHT22;9905;52.126;5.596;2022-12-07T00:11:12;4.00;99.90
19522;DHT22;9905;52.126;5.596;2022-12-07T00:13:39;4.00;99.90
19522;DHT22;9905;52.126;5.596;2022-12-07T00:16:08;4.00;99.90
19522;DHT22;9905;52.126;5.596;2022-12-07T00:18:35;3.90;99.90
19522;DHT22;9905;52.126;5.596;2022-12-07T00:21:05;3.90;99.90
19522;DHT22;9905;52.126;5.596;2022-12-07T00:23:32;4.00;99.90
19522;DHT22;9905;52.126;5.596;2022-12-07T00:26:03;4.00;99.90
19522;DHT22;9905;52.126;5.596;2022-12-07T00:28:30;3.90;99.90
19522;DHT22;9905;52.126;5.596;2022-12-07T00:31:01;3.90;99.90
19522;DHT22;9905;52.126;5.596;2022-12-07T00:33:28;3.90;99.90
19522;DHT22;9905;52.126;5.596;2022-12-07T00:35:55;3.90;99.90
19522;DHT22;9905;52.126;5.596;2022-12-07T00:38:24;3.90;99.90
19522;DHT22;9905;52.126;5.596;2022-12-07T00:40:55;3.90;99.90
19522;DHT22;9905;52.126;5.596;2022-12-07T00:43:22;3.90;99.90
19522;DHT22;9905;52.126;5.596;2022-12-07T00:45:49;3.90;99.90
19522;DHT22;9905;52.126;5.596;2022-12-07T00:48:16;3.80;99.90
19522;DHT22;9905;52.126;5.596;2022-12-07T00:50:43;3.80;99.90
19522;DHT22;9905;52.126;5.596;2022-12-07T00:53:10;3.80;99.90
19522;DHT22;9905;52.126;5.596;2022-12-07T00:55:38;3.80;99.90
19522;DHT22;9905;52.126;5.596;2022-12-07T00:58:04;3.70;99.90
19522;DHT22;9905;52.126;5.596;2022-12-07T01:00:31;3.70;99.90
19522;DHT22;9905;52.126;5.596;2022-12-07T01:02:58;3.70;99.90
19522;DHT22;9905;52.126;5.596;2022-12-07T01:05:25;3.60;99.90
19522;DHT22;9905;52.126;5.596;2022-12-07T01:07:52;3.60;99.90
19522;DHT22;9905;52.126;5.596;2022-12-07T01:10:19;3.60;99.90
19522;DHT22;9905;52.126;5.596;2022-12-07T01:12:47;3.50;99.90
19522;DHT22;9905;52.126;5.596;2022-12-07T01:15:14;3.50;99.90
19522;DHT22;9905;52.126;5.596;2022-12-07T01:17:41;3.50;99.90
19522;DHT22;9905;52.126;5.596;2022-12-07T01:20:08;3.50;99.90
19522;DHT22;9905;52.126;5.596;2022-12-07T01:22:36;3.50;99.90
19522;DHT22;9905;52.126;5.596;2022-12-07T01:25:04;3.50;99.90
19522;DHT22;9905;52.126;5.596;2022-12-07T01:27:32;3.40;99.90
19522;DHT22;9905;52.126;5.596;2022-12-07T01:30:00;3.50;99.90
19522;DHT22;9905;52.126;5.596;2022-12-07T01:32:27;3.40;99.90
19522;DHT22;9905;52.126;5.596;2022-12-07T01:34:54;3.40;99.90
19522;DHT22;9905;52.126;5.596;2022-12-07T01:37:20;3.40;99.90
19522;DHT22;9905;52.126;5.596;2022-12-07T01:39:48;3.30;99.90
19522;DHT22;9905;52.126;5.596;2022-12-07T01:42:15;3.30;99.90
19522;DHT22;9905;52.126;5.596;2022-12-07T01:47:53;3.30;99.90
19522;DHT22;9905;52.126;5.596;2022-12-07T01:50:21;3.20;99.90
19522;DHT22;9905;52.126;5.596;2022-12-07T01:52:51;3.20;99.90
19522;DHT22;9905;52.126;5.596;2022-12-07T01:55:19;3.20;99.90
19522;DHT22;9905;52.126;5.596;2022-12-07T01:57:48;3.20;99.90
19522;DHT22;9905;52.126;5.596;2022-12-07T02:00:16;3.20;99.90
19522;DHT22;9905;52.126;5.596;2022-12-07T02:02:49;3.20;99.90
19522;DHT22;9905;52.126;5.596;2022-12-07T02:05:19;3.20;99.90
19522;DHT22;9905;52.126;5.596;2022-12-07T02:07:48;3.20;99.90
19522;DHT22;9905;52.126;5.596;2022-12-07T02:10:16;3.20;99.90
19522;DHT22;9905;52.126;5.596;2022-12-07T02:12:44;3.20;99.90
19522;DHT22;9905;52.126;5.596;2022-12-07T02:15:12;3.10;99.90
19522;DHT22;9905;52.126;5.596;2022-12-07T02:17:46;3.10;99.90
19522;DHT22;9905;52.126;5.596;2022-12-07T02:20:28;3.10;99.90
19522;DHT22;9905;52.126;5.596;2022-12-07T02:29:12;3.10;99.90
19522;DHT22;9905;52.126;5.596;2022-12-07T02:31:44;3.10;99.90
19522;DHT22;9905;52.126;5.596;2022-12-07T02:34:18;3.10;99.90
19522;DHT22;9905;52.126;5.596;2022-12-07T02:36:51;3.10;99.90
19522;DHT22;9905;52.126;5.596;2022-12-07T02:39:25;3.10;99.90
19522;DHT22;9905;52.126;5.596;2022-12-07T02:41:59;3.10;99.90
19522;DHT22;9905;52.126;5.596;2022-12-07T02:44:30;3.10;99.90
19522;DHT22;9905;52.126;5.596;2022-12-07T02:47:02;3.10;99.90
19522;DHT22;9905;52.126;5.596;2022-12-07T02:49:36;3.10;99.90
19522;DHT22;9905;52.126;5.596;2022-12-07T02:52:04;3.00;99.90
19522;DHT22;9905;52.126;5.596;2022-12-07T02:54:31;3.10;99.90
19522;DHT22;9905;52.126;5.596;2022-12-07T02:57:06;3.10;99.90
19522;DHT22;9905;52.126;5.596;2022-12-07T02:59:48;3.10;99.90
19522;DHT22;9905;52.126;5.596;2022-12-07T03:02:23;3.10;99.90
19522;DHT22;9905;52.126;5.596;2022-12-07T03:05:02;3.10;99.90
19522;DHT22;9905;52.126;5.596;2022-12-07T03:07:37;3.10;99.90
19522;DHT22;9905;52.126;5.596;2022-12-07T03:10:10;3.10;99.90
19522;DHT22;9905;52.126;5.596;2022-12-07T03:12:45;3.10;99.90
19522;DHT22;9905;52.126;5.596;2022-12-07T03:15:18;3.10;99.90
19522;DHT22;9905;52.126;5.596;2022-12-07T03:17:47;3.10;99.90
19522;DHT22;9905;52.126;5.596;2022-12-07T03:20:18;3.10;99.90
19522;DHT22;9905;52.126;5.596;2022-12-07T03:22:47;3.10;99.90
19522;DHT22;9905;52.126;5.596;2022-12-07T03:25:16;3.10;99.90
19522;DHT22;9905;52.126;5.596;2022-12-07T03:27:49;3.10;99.90
19522;DHT22;9905;52.126;5.596;2022-12-07T03:30:20;3.10;99.90
19522;DHT22;9905;52.126;5.596;2022-12-07T03:32:52;3.10;99.90
19522;DHT22;9905;52.126;5.596;2022-12-07T03:35:24;3.20;99.90
19522;DHT22;9905;52.126;5.596;2022-12-07T03:37:55;3.20;99.90
19522;DHT22;9905;52.126;5.596;2022-12-07T03:40:26;3.10;99.90
19522;DHT22;9905;52.126;5.596;2022-12-07T03:42:55;3.10;99.90
19522;DHT22;9905;52.126;5.596;2022-12-07T03:45:31;3.20;99.90
19522;DHT22;9905;52.126;5.596;2022-12-07T03:48:05;3.20;99.90
19522;DHT22;9905;52.126;5.596;2022-12-07T03:50:38;3.20;99.90
19522;DHT22;9905;52.126;5.596;2022-12-07T03:53:11;3.20;99.90
19522;DHT22;9905;52.126;5.596;2022-12-07T03:55:42;3.20;99.90
19522;DHT22;9905;52.126;5.596;2022-12-07T03:58:12;3.20;99.90
19522;DHT22;9905;52.126;5.596;2022-12-07T04:00:43;3.20;99.90
19522;DHT22;9905;52.126;5.596;2022-12-07T04:03:10;3.20;99.90
19522;DHT22;9905;52.126;5.596;2022-12-07T04:05:37;3.10;99.90
19522;DHT22;9905;52.126;5.596;2022-12-07T04:08:05;3.10;99.90
19522;DHT22;9905;52.126;5.596;2022-12-07T04:10:32;3.10;99.90
19522;DHT22;9905;52.126;5.596;2022-12-07T04:12:58;3.20;99.90
19522;DHT22;9905;52.126;5.596;2022-12-07T04:15:25;3.20;99.90
19522;DHT22;9905;52.126;5.596;2022-12-07T04:17:53;3.20;99.90
19522;DHT22;9905;52.126;5.596;2022-12-07T04:20:20;3.20;99.90
19522;DHT22;9905;52.126;5.596;2022-12-07T04:22:47;3.20;99.90
19522;DHT22;9905;52.126;5.596;2022-12-07T04:25:14;3.20;99.90
19522;DHT22;9905;52.126;5.596;2022-12-07T04:27:41;3.30;99.90
19522;DHT22;9905;52.126;5.596;2022-12-07T04:30:08;3.30;99.90
19522;DHT22;9905;52.126;5.596;2022-12-07T04:32:35;3.30;99.90
19522;DHT22;9905;52.126;5.596;2022-12-07T04:35:04;3.30;99.90
19522;DHT22;9905;52.126;5.596;2022-12-07T04:37:31;3.30;99.90
19522;DHT22;9905;52.126;5.596;2022-12-07T04:39:57;3.30;99.90
19522;DHT22;9905;52.126;5.596;2022-12-07T04:42:24;3.30;99.90
19522;DHT22;9905;52.126;5.596;2022-12-07T04:44:51;3.30;99.90
19522;DHT22;9905;52.126;5.596;2022-12-07T04:47:18;3.30;99.90
19522;DHT22;9905;52.126;5.596;2022-12-07T04:49:44;3.30;99.90
19522;DHT22;9905;52.126;5.596;2022-12-07T04:52:12;3.30;99.90
19522;DHT22;9905;52.126;5.596;2022-12-07T04:54:39;3.20;99.90
19522;DHT22;9905;52.126;5.596;2022-12-07T04:57:06;3.20;99.90
19522;DHT22;9905;52.126;5.596;2022-12-07T04:59:32;3.20;99.90
19522;DHT22;9905;52.126;5.596;2022-12-07T05:01:59;3.10;99.90
19522;DHT22;9905;52.126;5.596;2022-12-07T05:04:26;3.10;99.90
19522;DHT22;9905;52.126;5.596;2022-12-07T05:06:53;3.10;99.90
19522;DHT22;9905;52.126;5.596;2022-12-07T05:09:21;3.10;99.90
19522;DHT22;9905;52.126;5.596;2022-12-07T05:11:48;3.10;99.90
19522;DHT22;9905;52.126;5.596;2022-12-07T05:14:16;3.10;99.90
19522;DHT22;9905;52.126;5.596;2022-12-07T05:16:44;3.00;99.90
19522;DHT22;9905;52.126;5.596;2022-12-07T05:19:12;3.00;99.90
19522;DHT22;9905;52.126;5.596;2022-12-07T05:21:39;3.00;99.90
19522;DHT22;9905;52.126;5.596;2022-12-07T05:24:08;3.00;99.90
19522;DHT22;9905;52.126;5.596;2022-12-07T05:26:37;3.00;99.90
19522;DHT22;9905;52.126;5.596;2022-12-07T05:29:04;2.90;99.90
19522;DHT22;9905;52.126;5.596;2022-12-07T05:31:31;2.90;99.90
19522;DHT22;9905;52.126;5.596;2022-12-07T05:33:58;2.90;99.90
19522;DHT22;9905;52.126;5.596;2022-12-07T05:36:25;2.90;99.90
19522;DHT22;9905;52.126;5.596;2022-12-07T05:38:54;2.80;99.90
19522;DHT22;9905;52.126;5.596;2022-12-07T05:41:20;2.80;99.90
19522;DHT22;9905;52.126;5.596;2022-12-07T05:44:06;2.80;99.90
19522;DHT22;9905;52.126;5.596;2022-12-07T05:46:33;2.70;99.90
19522;DHT22;9905;52.126;5.596;2022-12-07T05:49:00;2.70;99.90
19522;DHT22;9905;52.126;5.596;2022-12-07T05:51:27;2.70;99.90
19522;DHT22;9905;52.126;5.596;2022-12-07T05:53:53;2.70;99.90
19522;DHT22;9905;52.126;5.596;2022-12-07T05:56:20;2.60;99.90
19522;DHT22;9905;52.126;5.596;2022-12-07T05:58:47;2.60;99.90
19522;DHT22;9905;52.126;5.596;2022-12-07T06:01:33;2.60;99.90
19522;DHT22;9905;52.126;5.596;2022-12-07T06:03:59;2.50;99.90
19522;DHT22;9905;52.126;5.596;2022-12-07T06:06:26;2.50;99.90
19522;DHT22;9905;52.126;5.596;2022-12-07T06:08:53;2.50;99.90
19522;DHT22;9905;52.126;5.596;2022-12-07T06:11:19;2.50;99.90
19522;DHT22;9905;52.126;5.596;2022-12-07T06:14:03;2.50;99.90
19522;DHT22;9905;52.126;5.596;2022-12-07T06:16:30;2.50;99.90
19522;DHT22;9905;52.126;5.596;2022-12-07T06:18:58;2.50;99.90
19522;DHT22;9905;52.126;5.596;2022-12-07T06:21:25;2.50;99.90
19522;DHT22;9905;52.126;5.596;2022-12-07T06:23:52;2.60;99.90
19522;DHT22;9905;52.126;5.596;2022-12-07T06:26:19;2.60;99.90
19522;DHT22;9905;52.126;5.596;2022-12-07T06:28:46;2.70;99.90
19522;DHT22;9905;52.126;5.596;2022-12-07T06:31:13;2.70;99.90
19522;DHT22;9905;52.126;5.596;2022-12-07T06:33:40;2.70;99.90
19522;DHT22;9905;52.126;5.596;2022-12-07T06:36:08;2.70;99.90
19522;DHT22;9905;52.126;5.596;2022-12-07T06:38:35;2.70;99.90
19522;DHT22;9905;52.126;5.596;2022-12-07T06:41:02;2.70;99.90
19522;DHT22;9905;52.126;5.596;2022-12-07T06:43:29;2.70;99.90
19522;DHT22;9905;52.126;5.596;2022-12-07T06:45:56;2.70;99.90
19522;DHT22;9905;52.126;5.596;2022-12-07T06:48:23;2.70;99.90
19522;DHT22;9905;52.126;5.596;2022-12-07T06:50:50;2.70;99.90
19522;DHT22;9905;52.126;5.596;2022-12-07T06:53:18;2.70;99.90
19522;DHT22;9905;52.126;5.596;2022-12-07T06:55:44;2.70;99.90
19522;DHT22;9905;52.126;5.596;2022-12-07T06:58:11;2.70;99.90
19522;DHT22;9905;52.126;5.596;2022-12-07T07:00:38;2.70;99.90
19522;DHT22;9905;52.126;5.596;2022-12-07T07:03:04;2.70;99.90
19522;DHT22;9905;52.126;5.596;2022-12-07T07:05:31;2.60;99.90
19522;DHT22;9905;52.126;5.596;2022-12-07T07:07:58;2.70;99.90
19522;DHT22;9905;52.126;5.596;2022-12-07T07:10:26;2.60;99.90
19522;DHT22;9905;52.126;5.596;2022-12-07T07:12:53;2.60;99.90
19522;DHT22;9905;52.126;5.596;2022-12-07T07:15:20;2.60;99.90
19522;DHT22;9905;52.126;5.596;2022-12-07T07:17:46;2.60;99.90
19522;DHT22;9905;52.126;5.596;2022-12-07T07:20:13;2.50;99.90
19522;DHT22;9905;52.126;5.596;2022-12-07T07:22:40;2.50;99.90
19522;DHT22;9905;52.126;5.596;2022-12-07T07:25:07;2.50;99.90
19522;DHT22;9905;52.126;5.596;2022-12-07T07:27:35;2.50;99.90
19522;DHT22;9905;52.126;5.596;2022-12-07T07:30:03;2.40;99.90
19522;DHT22;9905;52.126;5.596;2022-12-07T07:32:29;2.40;99.90
19522;DHT22;9905;52.126;5.596;2022-12-07T07:34:56;2.40;99.90
19522;DHT22;9905;52.126;5.596;2022-12-07T07:37:23;2.30;99.90
19522;DHT22;9905;52.126;5.596;2022-12-07T07:39:50;2.30;99.90
19522;DHT22;9905;52.126;5.596;2022-12-07T07:42:17;2.30;99.90
19522;DHT22;9905;52.126;5.596;2022-12-07T07:44:45;2.30;99.90
19522;DHT22;9905;52.126;5.596;2022-12-07T07:47:11;2.30;99.90
19522;DHT22;9905;52.126;5.596;2022-12-07T07:49:38;2.20;99.90
19522;DHT22;9905;52.126;5.596;2022-12-07T07:52:05;2.20;99.90
19522;DHT22;9905;52.126;5.596;2022-12-07T07:54:32;2.20;99.90
19522;DHT22;9905;52.126;5.596;2022-12-07T07:56:59;2.20;99.90
19522;DHT22;9905;52.126;5.596;2022-12-07T07:59:26;2.20;99.90
19522;DHT22;9905;52.126;5.596;2022-12-07T08:01:54;2.20;99.90
19522;DHT22;9905;52.126;5.596;2022-12-07T08:04:20;2.20;99.90
19522;DHT22;9905;52.126;5.596;2022-12-07T08:06:47;2.30;99.90
19522;DHT22;9905;52.126;5.596;2022-12-07T08:09:14;2.30;99.90
19522;DHT22;9905;52.126;5.596;2022-12-07T08:11:41;2.30;99.90
19522;DHT22;9905;52.126;5.596;2022-12-07T08:14:07;2.30;99.90
19522;DHT22;9905;52.126;5.596;2022-12-07T08:16:34;2.30;99.90
19522;DHT22;9905;52.126;5.596;2022-12-07T08:19:04;2.30;99.90
19522;DHT22;9905;52.126;5.596;2022-12-07T08:21:31;2.30;99.90
19522;DHT22;9905;52.126;5.596;2022-12-07T08:23:57;2.30;99.90
19522;DHT22;9905;52.126;5.596;2022-12-07T08:26:24;2.40;99.90
19522;DHT22;9905;52.126;5.596;2022-12-07T08:28:52;2.40;99.90
19522;DHT22;9905;52.126;5.596;2022-12-07T08:31:19;2.40;99.90
19522;DHT22;9905;52.126;5.596;2022-12-07T08:33:47;2.40;99.90
19522;DHT22;9905;52.126;5.596;2022-12-07T08:36:17;2.50;99.90
19522;DHT22;9905;52.126;5.596;2022-12-07T08:38:44;2.50;99.90
19522;DHT22;9905;52.126;5.596;2022-12-07T08:41:11;2.60;99.90
19522;DHT22;9905;52.126;5.596;2022-12-07T08:43:37;2.70;99.90
19522;DHT22;9905;52.126;5.596;2022-12-07T08:46:08;2.80;99.90
19522;DHT22;9905;52.126;5.596;2022-12-07T08:48:40;2.80;99.90
19522;DHT22;9905;52.126;5.596;2022-12-07T08:51:07;2.90;99.90
19522;DHT22;9905;52.126;5.596;2022-12-07T08:53:37;2.90;99.90
19522;DHT22;9905;52.126;5.596;2022-12-07T08:56:06;3.00;99.90
19522;DHT22;9905;52.126;5.596;2022-12-07T08:58:35;3.10;99.90
19522;DHT22;9905;52.126;5.596;2022-12-07T09:01:02;3.20;99.90
19522;DHT22;9905;52.126;5.596;2022-12-07T09:03:30;3.20;99.90
19522;DHT22;9905;52.126;5.596;2022-12-07T09:05:57;3.30;99.90
19522;DHT22;9905;52.126;5.596;2022-12-07T09:08:27;3.30;99.90
19522;DHT22;9905;52.126;5.596;2022-12-07T09:10:57;3.30;99.90
19522;DHT22;9905;52.126;5.596;2022-12-07T09:13:24;3.40;99.90
19522;DHT22;9905;52.126;5.596;2022-12-07T09:15:51;3.40;99.90
19522;DHT22;9905;52.126;5.596;2022-12-07T09:18:18;3.50;99.90
19522;DHT22;9905;52.126;5.596;2022-12-07T09:20:44;3.50;99.90
19522;DHT22;9905;52.126;5.596;2022-12-07T09:23:11;3.60;99.90
19522;DHT22;9905;52.126;5.596;2022-12-07T09:25:38;3.60;99.90
19522;DHT22;9905;52.126;5.596;2022-12-07T09:28:06;3.60;99.90
19522;DHT22;9905;52.126;5.596;2022-12-07T09:30:33;3.70;99.90
19522;DHT22;9905;52.126;5.596;2022-12-07T09:33:00;3.70;99.90
19522;DHT22;9905;52.126;5.596;2022-12-07T09:35:26;3.80;99.90
19522;DHT22;9905;52.126;5.596;2022-12-07T09:37:53;3.90;99.90
19522;DHT22;9905;52.126;5.596;2022-12-07T09:40:22;4.00;99.90
19522;DHT22;9905;52.126;5.596;2022-12-07T09:42:52;4.10;99.90
19522;DHT22;9905;52.126;5.596;2022-12-07T09:45:23;4.20;99.90
19522;DHT22;9905;52.126;5.596;2022-12-07T09:47:50;4.20;99.90
19522;DHT22;9905;52.126;5.596;2022-12-07T09:50:21;4.20;99.90
19522;DHT22;9905;52.126;5.596;2022-12-07T09:52:48;4.20;99.90
19522;DHT22;9905;52.126;5.596;2022-12-07T09:55:21;4.20;99.90
19522;DHT22;9905;52.126;5.596;2022-12-07T09:57:50;4.30;99.90
19522;DHT22;9905;52.126;5.596;2022-12-07T10:00:21;4.30;99.90
19522;DHT22;9905;52.126;5.596;2022-12-07T10:02:52;4.30;99.90
19522;DHT22;9905;52.126;5.596;2022-12-07T10:05:23;4.20;99.90
19522;DHT22;9905;52.126;5.596;2022-12-07T10:07:50;4.30;99.90
19522;DHT22;9905;52.126;5.596;2022-12-07T10:10:20;4.30;99.90
19522;DHT22;9905;52.126;5.596;2022-12-07T10:12:58;4.30;99.90
19522;DHT22;9905;52.126;5.596;2022-12-07T10:18:31;4.40;99.90
19522;DHT22;9905;52.126;5.596;2022-12-07T10:21:12;4.40;99.90
19522;DHT22;9905;52.126;5.596;2022-12-07T10:23:40;4.40;99.90
19522;DHT22;9905;52.126;5.596;2022-12-07T10:26:25;4.40;99.90
19522;DHT22;9905;52.126;5.596;2022-12-07T10:28:53;4.50;99.90
19522;DHT22;9905;52.126;5.596;2022-12-07T10:31:21;4.50;99.90
19522;DHT22;9905;52.126;5.596;2022-12-07T10:33:52;4.60;99.90
19522;DHT22;9905;52.126;5.596;2022-12-07T10:36:22;4.60;99.90
19522;DHT22;9905;52.126;5.596;2022-12-07T10:38:51;4.60;99.90
19522;DHT22;9905;52.126;5.596;2022-12-07T10:41:18;4.70;99.90
19522;DHT22;9905;52.126;5.596;2022-12-07T10:43:48;4.70;99.90
19522;DHT22;9905;52.126;5.596;2022-12-07T10:46:37;4.80;99.90
19522;DHT22;9905;52.126;5.596;2022-12-07T10:49:28;4.80;99.90
19522;DHT22;9905;52.126;5.596;2022-12-07T10:52:05;4.80;99.90
19522;DHT22;9905;52.126;5.596;2022-12-07T10:54:41;4.90;99.90
19522;DHT22;9905;52.126;5.596;2022-12-07T10:57:26;5.00;99.90
19522;DHT22;9905;52.126;5.596;2022-12-07T11:00:02;5.00;99.90
19522;DHT22;9905;52.126;5.596;2022-12-07T11:02:39;5.00;99.90
19522;DHT22;9905;52.126;5.596;2022-12-07T11:05:18;5.10;99.90
19522;DHT22;9905;52.126;5.596;2022-12-07T11:07:51;5.20;99.90
19522;DHT22;9905;52.126;5.596;2022-12-07T11:10:24;5.30;99.90
19522;DHT22;9905;52.126;5.596;2022-12-07T11:13:02;5.40;99.90
19522;DHT22;9905;52.126;5.596;2022-12-07T11:15:37;5.50;99.90
19522;DHT22;9905;52.126;5.596;2022-12-07T11:18:13;5.60;99.90
19522;DHT22;9905;52.126;5.596;2022-12-07T11:20:53;5.70;99.90
19522;DHT22;9905;52.126;5.596;2022-12-07T11:23:26;5.80;99.90
19522;DHT22;9905;52.126;5.596;2022-12-07T11:26:01;5.80;99.90
19522;DHT22;9905;52.126;5.596;2022-12-07T11:28:41;5.90;99.90
19522;DHT22;9905;52.126;5.596;2022-12-07T11:31:20;5.90;99.90
19522;DHT22;9905;52.126;5.596;2022-12-07T11:33:53;5.80;99.90
19522;DHT22;9905;52.126;5.596;2022-12-07T11:36:33;5.90;99.90
19522;DHT22;9905;52.126;5.596;2022-12-07T11:39:02;5.90;99.90
19522;DHT22;9905;52.126;5.596;2022-12-07T11:41:34;5.80;99.90
19522;DHT22;9905;52.126;5.596;2022-12-07T11:44:05;5.80;99.90
19522;DHT22;9905;52.126;5.596;2022-12-07T11:46:43;5.80;99.90
19522;DHT22;9905;52.126;5.596;2022-12-07T11:49:15;5.90;99.90
19522;DHT22;9905;52.126;5.596;2022-12-07T11:51:48;5.90;99.90
19522;DHT22;9905;52.126;5.596;2022-12-07T11:54:21;6.00;99.90
19522;DHT22;9905;52.126;5.596;2022-12-07T11:56:50;6.10;99.90
19522;DHT22;9905;52.126;5.596;2022-12-07T11:59:22;6.10;99.90
19522;DHT22;9905;52.126;5.596;2022-12-07T12:01:53;6.20;99.90
19522;DHT22;9905;52.126;5.596;2022-12-07T12:04:30;6.30;99.90
19522;DHT22;9905;52.126;5.596;2022-12-07T12:06:59;6.40;99.90
19522;DHT22;9905;52.126;5.596;2022-12-07T12:09:29;6.40;99.90
19522;DHT22;9905;52.126;5.596;2022-12-07T12:12:25;6.50;99.90
19522;DHT22;9905;52.126;5.596;2022-12-07T12:15:03;6.60;99.90
19522;DHT22;9905;52.126;5.596;2022-12-07T12:20:29;6.70;99.90
19522;DHT22;9905;52.126;5.596;2022-12-07T12:23:04;6.70;99.90
19522;DHT22;9905;52.126;5.596;2022-12-07T12:25:38;6.80;99.90
19522;DHT22;9905;52.126;5.596;2022-12-07T12:28:20;6.80;99.90
19522;DHT22;9905;52.126;5.596;2022-12-07T12:31:04;6.80;99.90
19522;DHT22;9905;52.126;5.596;2022-12-07T12:33:32;6.90;99.90
19522;DHT22;9905;52.126;5.596;2022-12-07T12:36:21;6.90;99.90
19522;DHT22;9905;52.126;5.596;2022-12-07T12:38:51;6.90;99.90
19522;DHT22;9905;52.126;5.596;2022-12-07T12:45:11;7.10;99.90
19522;DHT22;9905;52.126;5.596;2022-12-07T12:47:55;7.10;99.90
19522;DHT22;9905;52.126;5.596;2022-12-07T12:50:25;7.10;99.90
19522;DHT22;9905;52.126;5.596;2022-12-07T12:53:02;7.20;99.90
19522;DHT22;9905;52.126;5.596;2022-12-07T12:58:42;7.40;99.90
19522;DHT22;9905;52.126;5.596;2022-12-07T13:01:42;7.40;99.90
19522;DHT22;9905;52.126;5.596;2022-12-07T13:04:48;7.30;99.90
19522;DHT22;9905;52.126;5.596;2022-12-07T13:10:27;7.20;99.90
19522;DHT22;9905;52.126;5.596;2022-12-07T13:12:57;7.20;99.90
19522;DHT22;9905;52.126;5.596;2022-12-07T13:15:35;7.10;99.90
19522;DHT22;9905;52.126;5.596;2022-12-07T13:18:14;7.10;99.90
19522;DHT22;9905;52.126;5.596;2022-12-07T13:20:50;7.00;99.90
19522;DHT22;9905;52.126;5.596;2022-12-07T13:23:26;7.00;99.90
19522;DHT22;9905;52.126;5.596;2022-12-07T13:26:00;6.90;99.90
19522;DHT22;9905;52.126;5.596;2022-12-07T13:28:35;6.60;99.90
19522;DHT22;9905;52.126;5.596;2022-12-07T13:31:32;6.40;99.90
19522;DHT22;9905;52.126;5.596;2022-12-07T13:34:00;6.30;99.90
19522;DHT22;9905;52.126;5.596;2022-12-07T13:36:29;6.20;99.90
19522;DHT22;9905;52.126;5.596;2022-12-07T13:39:11;6.20;99.90
19522;DHT22;9905;52.126;5.596;2022-12-07T13:41:43;6.20;99.90
19522;DHT22;9905;52.126;5.596;2022-12-07T13:44:11;6.10;99.90
19522;DHT22;9905;52.126;5.596;2022-12-07T13:46:48;6.10;99.90
19522;DHT22;9905;52.126;5.596;2022-12-07T13:49:18;6.00;99.90
19522;DHT22;9905;52.126;5.596;2022-12-07T13:51:46;6.10;99.90
19522;DHT22;9905;52.126;5.596;2022-12-07T13:54:14;6.10;99.90
19522;DHT22;9905;52.126;5.596;2022-12-07T13:56:41;6.10;99.90
19522;DHT22;9905;52.126;5.596;2022-12-07T13:59:14;6.10;99.90
19522;DHT22;9905;52.126;5.596;2022-12-07T14:01:41;6.10;99.90
19522;DHT22;9905;52.126;5.596;2022-12-07T14:04:33;6.10;99.90
19522;DHT22;9905;52.126;5.596;2022-12-07T14:07:18;6.00;99.90
19522;DHT22;9905;52.126;5.596;2022-12-07T14:09:57;6.00;99.90
19522;DHT22;9905;52.126;5.596;2022-12-07T14:12:25;6.00;99.90
19522;DHT22;9905;52.126;5.596;2022-12-07T14:14:53;6.10;99.90
19522;DHT22;9905;52.126;5.596;2022-12-07T14:17:22;6.00;99.90
19522;DHT22;9905;52.126;5.596;2022-12-07T14:19:52;6.00;99.90
19522;DHT22;9905;52.126;5.596;2022-12-07T14:22:26;6.00;99.90
19522;DHT22;9905;52.126;5.596;2022-12-07T14:25:17;6.00;99.90
19522;DHT22;9905;52.126;5.596;2022-12-07T14:27:49;6.00;99.90
19522;DHT22;9905;52.126;5.596;2022-12-07T14:30:18;6.00;99.90
19522;DHT22;9905;52.126;5.596;2022-12-07T14:32:52;6.00;99.90
19522;DHT22;9905;52.126;5.596;2022-12-07T14:35:20;6.00;99.90
19522;DHT22;9905;52.126;5.596;2022-12-07T14:37:49;6.00;99.90
19522;DHT22;9905;52.126;5.596;2022-12-07T14:40:18;6.00;99.90
19522;DHT22;9905;52.126;5.596;2022-12-07T14:42:47;6.00;99.90
19522;DHT22;9905;52.126;5.596;2022-12-07T14:45:17;6.00;99.90
19522;DHT22;9905;52.126;5.596;2022-12-07T14:47:44;6.00;99.90
19522;DHT22;9905;52.126;5.596;2022-12-07T14:50:13;5.90;99.90
19522;DHT22;9905;52.126;5.596;2022-12-07T14:52:42;5.90;99.90
19522;DHT22;9905;52.126;5.596;2022-12-07T14:55:14;5.90;99.90
19522;DHT22;9905;52.126;5.596;2022-12-07T14:57:42;5.90;99.90
19522;DHT22;9905;52.126;5.596;2022-12-07T15:00:13;5.90;99.90
19522;DHT22;9905;52.126;5.596;2022-12-07T15:02:41;5.80;99.90
19522;DHT22;9905;52.126;5.596;2022-12-07T15:05:08;5.80;99.90
19522;DHT22;9905;52.126;5.596;2022-12-07T15:07:35;5.80;99.90
19522;DHT22;9905;52.126;5.596;2022-12-07T15:10:04;5.80;99.90
19522;DHT22;9905;52.126;5.596;2022-12-07T15:12:30;5.80;99.90
19522;DHT22;9905;52.126;5.596;2022-12-07T15:14:57;5.70;99.90
19522;DHT22;9905;52.126;5.596;2022-12-07T15:17:24;5.70;99.90
19522;DHT22;9905;52.126;5.596;2022-12-07T15:19:51;5.70;99.90
19522;DHT22;9905;52.126;5.596;2022-12-07T15:22:17;5.70;99.90
19522;DHT22;9905;52.126;5.596;2022-12-07T15:24:44;5.70;99.90
19522;DHT22;9905;52.126;5.596;2022-12-07T15:27:12;5.70;99.90
19522;DHT22;9905;52.126;5.596;2022-12-07T15:29:39;5.60;99.90
19522;DHT22;9905;52.126;5.596;2022-12-07T15:32:05;5.60;99.90
19522;DHT22;9905;52.126;5.596;2022-12-07T15:34:32;5.60;99.90
19522;DHT22;9905;52.126;5.596;2022-12-07T15:36:59;5.60;99.90
19522;DHT22;9905;52.126;5.596;2022-12-07T15:39:26;5.60;99.90
19522;DHT22;9905;52.126;5.596;2022-12-07T15:41:53;5.60;99.90
19522;DHT22;9905;52.126;5.596;2022-12-07T15:44:21;5.60;99.90
19522;DHT22;9905;52.126;5.596;2022-12-07T15:47:05;5.50;99.90
19522;DHT22;9905;52.126;5.596;2022-12-07T15:49:32;5.50;99.90
19522;DHT22;9905;52.126;5.596;2022-12-07T15:51:59;5.50;99.90
19522;DHT22;9905;52.126;5.596;2022-12-07T15:54:27;5.50;99.90
19522;DHT22;9905;52.126;5.596;2022-12-07T15:56:55;5.40;99.90
19522;DHT22;9905;52.126;5.596;2022-12-07T15:59:25;5.40;99.90
19522;DHT22;9905;52.126;5.596;2022-12-07T16:01:52;5.40;99.90
19522;DHT22;9905;52.126;5.596;2022-12-07T16:04:19;5.40;99.90
19522;DHT22;9905;52.126;5.596;2022-12-07T16:06:46;5.40;99.90
19522;DHT22;9905;52.126;5.596;2022-12-07T16:09:12;5.30;99.90
19522;DHT22;9905;52.126;5.596;2022-12-07T16:11:39;5.30;99.90
19522;DHT22;9905;52.126;5.596;2022-12-07T16:14:06;5.30;99.90
19522;DHT22;9905;52.126;5.596;2022-12-07T16:16:34;5.20;99.90
19522;DHT22;9905;52.126;5.596;2022-12-07T16:19:01;5.20;99.90
19522;DHT22;9905;52.126;5.596;2022-12-07T16:21:28;5.20;99.90
19522;DHT22;9905;52.126;5.596;2022-12-07T16:23:57;5.20;99.90
19522;DHT22;9905;52.126;5.596;2022-12-07T16:26:24;5.20;99.90
19522;DHT22;9905;52.126;5.596;2022-12-07T16:28:51;5.20;99.90
19522;DHT22;9905;52.126;5.596;2022-12-07T16:31:20;5.10;99.90
19522;DHT22;9905;52.126;5.596;2022-12-07T16:33:49;5.10;99.90
19522;DHT22;9905;52.126;5.596;2022-12-07T16:36:16;5.20;99.90
19522;DHT22;9905;52.126;5.596;2022-12-07T16:38:43;5.20;99.90
19522;DHT22;9905;52.126;5.596;2022-12-07T16:41:11;5.10;99.90
19522;DHT22;9905;52.126;5.596;2022-12-07T16:43:38;5.10;99.90
19522;DHT22;9905;52.126;5.596;2022-12-07T16:46:05;5.10;99.90